sensor_id;sensor_type;location;lat;lon;timestamp;pressure;altitude;pressure_sealevel;temperature;humidity
17525;BME280;40431;52.198;9.902;2023-06-22T00:00:33;100988.66;;;21.76;99.46
17525;BME280;40431;52.198;9.902;2023-06-22T00:02:59;100995.25;;;21.75;98.99
17525;BME280;40431;52.198;9.902;2023-06-22T00:05:25;100995.00;;;21.68;98.60
17525;BME280;40431;52.198;9.902;2023-06-22T00:07:52;100995.59;;;21.62;98.70
17525;BME280;40431;52.198;9.902;2023-06-22T00:10:20;101007.84;;;21.50;99.43
17525;BME280;40431;52.198;9.902;2023-06-22T00:12:46;101000.03;;;21.45;99.70
17525;BME280;40431;52.198;9.902;2023-06-22T00:15:12;101005.22;;;21.48;100.00
17525;BME280;40431;52.198;9.902;2023-06-22T00:17:39;101010.91;;;21.47;100.00
17525;BME280;40431;52.198;9.902;2023-06-22T00:20:06;101009.63;;;21.41;100.00
17525;BME280;40431;52.198;9.902;2023-06-22T00:22:35;101015.75;;;21.35;100.00
17525;BME280;40431;52.198;9.902;2023-06-22T00:25:05;101022.59;;;21.31;100.00
17525;BME280;40431;52.198;9.902;2023-06-22T00:27:33;101021.28;;;21.35;100.00
17525;BME280;40431;52.198;9.902;2023-06-22T00:29:59;101019.56;;;21.34;100.00
17525;BME280;40431;52.198;9.902;2023-06-22T00:32:26;101011.97;;;21.36;100.00
17525;BME280;40431;52.198;9.902;2023-06-22T00:34:52;101007.06;;;21.30;100.00
17525;BME280;40431;52.198;9.902;2023-06-22T00:37:18;101012.31;;;21.23;98.65
17525;BME280;40431;52.198;9.902;2023-06-22T00:39:47;101012.69;;;21.10;99.67
17525;BME280;40431;52.198;9.902;2023-06-22T00:42:14;101007.34;;;21.09;99.98
17525;BME280;40431;52.198;9.902;2023-06-22T00:44:41;100997.34;;;20.98;100.00
17525;BME280;40431;52.198;9.902;2023-06-22T00:47:09;101002.31;;;20.94;100.00
17525;BME280;40431;52.198;9.902;2023-06-22T00:49:35;100999.72;;;20.63;100.00
17525;BME280;40431;52.198;9.902;2023-06-22T00:52:02;100992.53;;;20.43;100.00
17525;BME280;40431;52.198;9.902;2023-06-22T00:54:28;100988.22;;;20.21;100.00
17525;BME280;40431;52.198;9.902;2023-06-22T00:56:56;100987.06;;;19.94;100.00
17525;BME280;40431;52.198;9.902;2023-06-22T00:59:23;100984.69;;;19.79;100.00
17525;BME280;40431;52.198;9.902;2023-06-22T01:01:52;100985.59;;;19.80;100.00
17525;BME280;40431;52.198;9.902;2023-06-22T01:04:18;100979.81;;;19.93;100.00
17525;BME280;40431;52.198;9.902;2023-06-22T01:06:50;100983.91;;;19.98;100.00
17525;BME280;40431;52.198;9.902;2023-06-22T01:09:25;100990.41;;;20.07;100.00
17525;BME280;40431;52.198;9.902;2023-06-22T01:11:58;100985.31;;;20.12;100.00
17525;BME280;40431;52.198;9.902;2023-06-22T01:14:31;100980.56;;;20.14;100.00
17525;BME280;40431;52.198;9.902;2023-06-22T01:17:05;100974.16;;;20.14;100.00
17525;BME280;40431;52.198;9.902;2023-06-22T01:19:37;100970.56;;;20.13;100.00
17525;BME280;40431;52.198;9.902;2023-06-22T01:22:07;100969.09;;;20.19;100.00
17525;BME280;40431;52.198;9.902;2023-06-22T01:24:47;100965.34;;;20.20;100.00
17525;BME280;40431;52.198;9.902;2023-06-22T01:27:32;100964.75;;;20.16;100.00
17525;BME280;40431;52.198;9.902;2023-06-22T01:30:01;100969.41;;;19.96;100.00
17525;BME280;40431;52.198;9.902;2023-06-22T01:32:31;100966.75;;;19.75;100.00
17525;BME280;40431;52.198;9.902;2023-06-22T01:35:00;100977.31;;;19.70;100.00
17525;BME280;40431;52.198;9.902;2023-06-22T01:37:27;100978.03;;;19.72;100.00
17525;BME280;40431;52.198;9.902;2023-06-22T01:39:55;100975.75;;;19.77;100.00
17525;BME280;40431;52.198;9.902;2023-06-22T01:42:23;100983.44;;;19.83;100.00
17525;BME280;40431;52.198;9.902;2023-06-22T01:44:51;100984.00;;;19.77;100.00
17525;BME280;40431;52.198;9.902;2023-06-22T01:47:20;100978.50;;;19.77;100.00
17525;BME280;40431;52.198;9.902;2023-06-22T01:49:47;100967.97;;;19.82;100.00
17525;BME280;40431;52.198;9.902;2023-06-22T01:52:13;100973.59;;;19.91;100.00
17525;BME280;40431;52.198;9.902;2023-06-22T01:54:40;100972.00;;;19.98;100.00
17525;BME280;40431;52.198;9.902;2023-06-22T01:57:06;100971.44;;;20.04;100.00
17525;BME280;40431;52.198;9.902;2023-06-22T01:59:36;100977.38;;;20.09;100.00
17525;BME280;40431;52.198;9.902;2023-06-22T02:02:07;100974.31;;;20.12;100.00
17525;BME280;40431;52.198;9.902;2023-06-22T02:04:40;100980.41;;;20.06;100.00
17525;BME280;40431;52.198;9.902;2023-06-22T02:07:12;100974.88;;;20.06;100.00
17525;BME280;40431;52.198;9.902;2023-06-22T02:09:42;100973.03;;;20.07;100.00
17525;BME280;40431;52.198;9.902;2023-06-22T02:12:11;100969.38;;;20.06;100.00
17525;BME280;40431;52.198;9.902;2023-06-22T02:14:39;100979.38;;;20.07;100.00
17525;BME280;40431;52.198;9.902;2023-06-22T02:17:09;100984.03;;;20.07;100.00
17525;BME280;40431;52.198;9.902;2023-06-22T02:19:37;100983.88;;;20.08;100.00
17525;BME280;40431;52.198;9.902;2023-06-22T02:22:04;100982.84;;;19.99;100.00
17525;BME280;40431;52.198;9.902;2023-06-22T02:24:31;100975.91;;;19.85;100.00
17525;BME280;40431;52.198;9.902;2023-06-22T02:26:58;100983.81;;;19.69;100.00
17525;BME280;40431;52.198;9.902;2023-06-22T02:29:25;100971.47;;;19.44;100.00
17525;BME280;40431;52.198;9.902;2023-06-22T02:31:52;100976.94;;;19.34;100.00
17525;BME280;40431;52.198;9.902;2023-06-22T02:34:18;100978.78;;;19.24;100.00
17525;BME280;40431;52.198;9.902;2023-06-22T02:36:46;100980.22;;;19.18;100.00
17525;BME280;40431;52.198;9.902;2023-06-22T02:39:17;100990.06;;;19.11;100.00
17525;BME280;40431;52.198;9.902;2023-06-22T02:41:43;100993.53;;;19.13;100.00
17525;BME280;40431;52.198;9.902;2023-06-22T02:44:10;100997.88;;;19.15;100.00
17525;BME280;40431;52.198;9.902;2023-06-22T02:46:36;101006.28;;;19.24;100.00
17525;BME280;40431;52.198;9.902;2023-06-22T02:49:02;101002.25;;;19.28;100.00
17525;BME280;40431;52.198;9.902;2023-06-22T02:51:30;101011.56;;;19.36;100.00
17525;BME280;40431;52.198;9.902;2023-06-22T02:53:58;101015.63;;;19.42;100.00
17525;BME280;40431;52.198;9.902;2023-06-22T02:56:24;101018.81;;;19.47;100.00
17525;BME280;40431;52.198;9.902;2023-06-22T02:58:51;101015.81;;;19.50;100.00
17525;BME280;40431;52.198;9.902;2023-06-22T03:01:17;101025.22;;;19.58;100.00
17525;BME280;40431;52.198;9.902;2023-06-22T03:03:49;101017.13;;;19.56;100.00
17525;BME280;40431;52.198;9.902;2023-06-22T03:06:16;101027.53;;;19.62;100.00
17525;BME280;40431;52.198;9.902;2023-06-22T03:08:48;101020.75;;;19.66;100.00
17525;BME280;40431;52.198;9.902;2023-06-22T03:11:15;101026.81;;;19.70;100.00
17525;BME280;40431;52.198;9.902;2023-06-22T03:13:42;101016.56;;;19.72;100.00
17525;BME280;40431;52.198;9.902;2023-06-22T03:16:08;101026.34;;;19.45;100.00
17525;BME280;40431;52.198;9.902;2023-06-22T03:18:34;101024.44;;;19.36;100.00
17525;BME280;40431;52.198;9.902;2023-06-22T03:21:01;101019.09;;;19.34;100.00
17525;BME280;40431;52.198;9.902;2023-06-22T03:23:27;101015.91;;;19.39;100.00
17525;BME280;40431;52.198;9.902;2023-06-22T03:25:54;101027.66;;;19.41;100.00
17525;BME280;40431;52.198;9.902;2023-06-22T03:28:22;101029.81;;;19.47;100.00
17525;BME280;40431;52.198;9.902;2023-06-22T03:30:48;101034.75;;;19.53;100.00
17525;BME280;40431;52.198;9.902;2023-06-22T03:33:14;101036.22;;;19.58;100.00
17525;BME280;40431;52.198;9.902;2023-06-22T03:35:41;101027.50;;;19.52;100.00
17525;BME280;40431;52.198;9.902;2023-06-22T03:38:07;101030.25;;;19.52;100.00
17525;BME280;40431;52.198;9.902;2023-06-22T03:40:34;101031.84;;;19.45;100.00
17525;BME280;40431;52.198;9.902;2023-06-22T03:43:00;101033.25;;;19.40;100.00
17525;BME280;40431;52.198;9.902;2023-06-22T03:45:28;101024.28;;;19.38;100.00
17525;BME280;40431;52.198;9.902;2023-06-22T03:47:54;101024.06;;;19.50;100.00
17525;BME280;40431;52.198;9.902;2023-06-22T03:50:20;101016.22;;;19.56;100.00
17525;BME280;40431;52.198;9.902;2023-06-22T03:52:47;101016.53;;;19.62;100.00
17525;BME280;40431;52.198;9.902;2023-06-22T03:55:13;101008.47;;;19.71;100.00
17525;BME280;40431;52.198;9.902;2023-06-22T03:57:40;101013.38;;;19.67;100.00
17525;BME280;40431;52.198;9.902;2023-06-22T04:00:07;101009.16;;;19.63;100.00
17525;BME280;40431;52.198;9.902;2023-06-22T04:02:36;101015.66;;;19.52;100.00
17525;BME280;40431;52.198;9.902;2023-06-22T04:05:03;101002.22;;;19.59;100.00
17525;BME280;40431;52.198;9.902;2023-06-22T04:07:29;101007.88;;;19.67;100.00
17525;BME280;40431;52.198;9.902;2023-06-22T04:09:56;101011.66;;;19.76;100.00
17525;BME280;40431;52.198;9.902;2023-06-22T04:12:22;101015.84;;;19.80;100.00
17525;BME280;40431;52.198;9.902;2023-06-22T04:14:48;101014.28;;;19.87;100.00
17525;BME280;40431;52.198;9.902;2023-06-22T04:17:15;101016.63;;;19.92;100.00
17525;BME280;40431;52.198;9.902;2023-06-22T04:19:44;101010.25;;;19.91;100.00
17525;BME280;40431;52.198;9.902;2023-06-22T04:22:10;101015.59;;;19.93;100.00
17525;BME280;40431;52.198;9.902;2023-06-22T04:24:37;101023.59;;;19.96;100.00
17525;BME280;40431;52.198;9.902;2023-06-22T04:27:04;101022.44;;;19.98;100.00
17525;BME280;40431;52.198;9.902;2023-06-22T04:29:30;101022.84;;;20.03;100.00
17525;BME280;40431;52.198;9.902;2023-06-22T04:31:57;101017.22;;;20.05;100.00
17525;BME280;40431;52.198;9.902;2023-06-22T04:34:28;101027.94;;;20.08;100.00
17525;BME280;40431;52.198;9.902;2023-06-22T04:36:57;101019.53;;;20.10;100.00
17525;BME280;40431;52.198;9.902;2023-06-22T04:39:23;101026.06;;;20.18;100.00
17525;BME280;40431;52.198;9.902;2023-06-22T04:41:52;101027.06;;;20.17;100.00
17525;BME280;40431;52.198;9.902;2023-06-22T04:44:18;101020.53;;;20.18;100.00
17525;BME280;40431;52.198;9.902;2023-06-22T04:46:49;101026.75;;;20.21;100.00
17525;BME280;40431;52.198;9.902;2023-06-22T04:49:19;101024.59;;;20.24;100.00
17525;BME280;40431;52.198;9.902;2023-06-22T04:51:47;101014.16;;;20.28;100.00
17525;BME280;40431;52.198;9.902;2023-06-22T04:54:15;101015.88;;;20.29;100.00
17525;BME280;40431;52.198;9.902;2023-06-22T04:56:41;101016.91;;;20.28;100.00
17525;BME280;40431;52.198;9.902;2023-06-22T04:59:08;101009.09;;;20.33;100.00
17525;BME280;40431;52.198;9.902;2023-06-22T05:01:38;101002.44;;;20.35;100.00
17525;BME280;40431;52.198;9.902;2023-06-22T05:04:04;101009.66;;;20.36;100.00
17525;BME280;40431;52.198;9.902;2023-06-22T05:06:31;101009.38;;;20.40;100.00
17525;BME280;40431;52.198;9.902;2023-06-22T05:08:58;101011.97;;;20.41;100.00
17525;BME280;40431;52.198;9.902;2023-06-22T05:11:26;101005.47;;;20.42;100.00
17525;BME280;40431;52.198;9.902;2023-06-22T05:13:53;101002.41;;;20.45;100.00
17525;BME280;40431;52.198;9.902;2023-06-22T05:16:20;101001.81;;;20.51;100.00
17525;BME280;40431;52.198;9.902;2023-06-22T05:18:52;101004.97;;;20.57;100.00
17525;BME280;40431;52.198;9.902;2023-06-22T05:21:21;100993.94;;;20.57;100.00
17525;BME280;40431;52.198;9.902;2023-06-22T05:23:48;100995.41;;;20.61;100.00
17525;BME280;40431;52.198;9.902;2023-06-22T05:26:14;100995.13;;;20.64;100.00
17525;BME280;40431;52.198;9.902;2023-06-22T05:28:42;100995.56;;;20.69;100.00
17525;BME280;40431;52.198;9.902;2023-06-22T05:31:11;100991.91;;;20.68;100.00
17525;BME280;40431;52.198;9.902;2023-06-22T05:33:37;100987.31;;;20.69;100.00
17525;BME280;40431;52.198;9.902;2023-06-22T05:36:04;100993.25;;;20.74;100.00
17525;BME280;40431;52.198;9.902;2023-06-22T05:38:30;100986.69;;;20.75;100.00
17525;BME280;40431;52.198;9.902;2023-06-22T05:40:57;100989.88;;;20.80;100.00
17525;BME280;40431;52.198;9.902;2023-06-22T05:43:23;100991.03;;;20.88;100.00
17525;BME280;40431;52.198;9.902;2023-06-22T05:45:51;100993.47;;;20.91;100.00
17525;BME280;40431;52.198;9.902;2023-06-22T05:48:17;100986.94;;;20.92;100.00
17525;BME280;40431;52.198;9.902;2023-06-22T05:50:43;100990.41;;;20.94;100.00
17525;BME280;40431;52.198;9.902;2023-06-22T05:53:10;101002.56;;;21.01;100.00
17525;BME280;40431;52.198;9.902;2023-06-22T05:55:36;100992.66;;;21.08;100.00
17525;BME280;40431;52.198;9.902;2023-06-22T05:58:03;100997.44;;;21.16;100.00
17525;BME280;40431;52.198;9.902;2023-06-22T06:00:29;100998.53;;;21.23;100.00
17525;BME280;40431;52.198;9.902;2023-06-22T06:02:57;101001.56;;;21.30;100.00
17525;BME280;40431;52.198;9.902;2023-06-22T06:05:28;100999.22;;;21.35;100.00
17525;BME280;40431;52.198;9.902;2023-06-22T06:07:54;100994.81;;;21.42;100.00
17525;BME280;40431;52.198;9.902;2023-06-22T06:10:21;100998.41;;;21.52;100.00
17525;BME280;40431;52.198;9.902;2023-06-22T06:12:47;101001.28;;;21.61;100.00
17525;BME280;40431;52.198;9.902;2023-06-22T06:15:13;100992.28;;;21.59;100.00
17525;BME280;40431;52.198;9.902;2023-06-22T06:17:45;100990.09;;;21.62;100.00
17525;BME280;40431;52.198;9.902;2023-06-22T06:20:13;100988.44;;;21.69;100.00
17525;BME280;40431;52.198;9.902;2023-06-22T06:22:40;100988.53;;;21.78;100.00
17525;BME280;40431;52.198;9.902;2023-06-22T06:25:08;100978.44;;;21.87;100.00
17525;BME280;40431;52.198;9.902;2023-06-22T06:27:34;100971.56;;;21.91;100.00
17525;BME280;40431;52.198;9.902;2023-06-22T06:30:01;100974.72;;;21.96;100.00
17525;BME280;40431;52.198;9.902;2023-06-22T06:32:28;100975.97;;;22.01;100.00
17525;BME280;40431;52.198;9.902;2023-06-22T06:34:55;100970.63;;;22.00;100.00
17525;BME280;40431;52.198;9.902;2023-06-22T06:37:22;100971.41;;;22.10;100.00
17525;BME280;40431;52.198;9.902;2023-06-22T06:39:49;100976.31;;;22.16;100.00
17525;BME280;40431;52.198;9.902;2023-06-22T06:42:16;100979.44;;;22.22;100.00
17525;BME280;40431;52.198;9.902;2023-06-22T06:44:44;100971.88;;;22.24;100.00
17525;BME280;40431;52.198;9.902;2023-06-22T06:47:10;100977.06;;;22.27;100.00
17525;BME280;40431;52.198;9.902;2023-06-22T06:49:37;100974.53;;;22.33;100.00
17525;BME280;40431;52.198;9.902;2023-06-22T06:52:04;100973.75;;;22.41;100.00
17525;BME280;40431;52.198;9.902;2023-06-22T06:54:32;100976.03;;;22.46;100.00
17525;BME280;40431;52.198;9.902;2023-06-22T06:56:58;100978.00;;;22.54;100.00
17525;BME280;40431;52.198;9.902;2023-06-22T06:59:24;100973.88;;;22.58;100.00
17525;BME280;40431;52.198;9.902;2023-06-22T07:01:51;100969.44;;;22.65;100.00
17525;BME280;40431;52.198;9.902;2023-06-22T07:04:17;100974.31;;;22.71;99.45
17525;BME280;40431;52.198;9.902;2023-06-22T07:06:43;100975.22;;;22.80;97.33
17525;BME280;40431;52.198;9.902;2023-06-22T07:09:10;100970.94;;;22.85;98.62
17525;BME280;40431;52.198;9.902;2023-06-22T07:11:37;100969.25;;;22.93;98.04
17525;BME280;40431;52.198;9.902;2023-06-22T07:14:04;100973.03;;;22.92;98.43
17525;BME280;40431;52.198;9.902;2023-06-22T07:16:30;100975.69;;;23.01;96.23
17525;BME280;40431;52.198;9.902;2023-06-22T07:18:56;100964.25;;;22.96;93.40
17525;BME280;40431;52.198;9.902;2023-06-22T07:21:23;100961.81;;;22.93;95.29
17525;BME280;40431;52.198;9.902;2023-06-22T07:23:49;100957.19;;;23.02;95.45
17525;BME280;40431;52.198;9.902;2023-06-22T07:26:15;100967.44;;;23.10;92.15
17525;BME280;40431;52.198;9.902;2023-06-22T07:28:43;100958.25;;;23.09;91.42
17525;BME280;40431;52.198;9.902;2023-06-22T07:31:09;100960.72;;;23.12;93.89
17525;BME280;40431;52.198;9.902;2023-06-22T07:33:36;100953.13;;;23.14;93.05
17525;BME280;40431;52.198;9.902;2023-06-22T07:36:03;100949.88;;;23.19;94.00
17525;BME280;40431;52.198;9.902;2023-06-22T07:38:33;100956.28;;;23.28;93.65
17525;BME280;40431;52.198;9.902;2023-06-22T07:40:59;100952.66;;;23.27;92.66
17525;BME280;40431;52.198;9.902;2023-06-22T07:43:26;100960.13;;;23.27;92.97
17525;BME280;40431;52.198;9.902;2023-06-22T07:45:53;100959.41;;;23.25;93.00
17525;BME280;40431;52.198;9.902;2023-06-22T07:48:20;100966.50;;;23.27;93.30
17525;BME280;40431;52.198;9.902;2023-06-22T07:50:47;100969.81;;;23.31;93.22
17525;BME280;40431;52.198;9.902;2023-06-22T07:53:13;100969.47;;;23.34;92.72
17525;BME280;40431;52.198;9.902;2023-06-22T07:55:40;100964.97;;;23.41;93.05
17525;BME280;40431;52.198;9.902;2023-06-22T07:58:06;100959.81;;;23.46;94.35
17525;BME280;40431;52.198;9.902;2023-06-22T08:00:33;100969.50;;;23.50;92.80
17525;BME280;40431;52.198;9.902;2023-06-22T08:03:01;100964.31;;;23.47;92.43
17525;BME280;40431;52.198;9.902;2023-06-22T08:05:30;100954.97;;;23.48;92.13
17525;BME280;40431;52.198;9.902;2023-06-22T08:07:56;100965.88;;;23.50;93.34
17525;BME280;40431;52.198;9.902;2023-06-22T08:10:23;100950.66;;;23.46;91.71
17525;BME280;40431;52.198;9.902;2023-06-22T08:12:49;100955.09;;;23.39;93.27
17525;BME280;40431;52.198;9.902;2023-06-22T08:15:17;100943.00;;;23.40;92.89
17525;BME280;40431;52.198;9.902;2023-06-22T08:17:43;100956.63;;;23.25;93.73
17525;BME280;40431;52.198;9.902;2023-06-22T08:20:12;100959.44;;;23.33;94.37
17525;BME280;40431;52.198;9.902;2023-06-22T08:22:39;100964.78;;;23.34;94.25
17525;BME280;40431;52.198;9.902;2023-06-22T08:25:06;100958.94;;;23.46;95.12
17525;BME280;40431;52.198;9.902;2023-06-22T08:27:33;100959.50;;;23.58;92.93
17525;BME280;40431;52.198;9.902;2023-06-22T08:30:01;100964.34;;;23.64;92.52
17525;BME280;40431;52.198;9.902;2023-06-22T08:32:28;100965.72;;;23.60;91.72
17525;BME280;40431;52.198;9.902;2023-06-22T08:34:55;100964.88;;;23.67;93.38
17525;BME280;40431;52.198;9.902;2023-06-22T08:37:23;100963.84;;;23.68;90.96
17525;BME280;40431;52.198;9.902;2023-06-22T08:39:55;100973.91;;;23.70;91.48
17525;BME280;40431;52.198;9.902;2023-06-22T08:42:22;100962.81;;;23.70;91.58
17525;BME280;40431;52.198;9.902;2023-06-22T08:44:49;100963.69;;;23.70;90.64
17525;BME280;40431;52.198;9.902;2023-06-22T08:47:15;100963.31;;;23.73;90.31
17525;BME280;40431;52.198;9.902;2023-06-22T08:49:42;100969.41;;;23.77;91.04
17525;BME280;40431;52.198;9.902;2023-06-22T08:52:08;100962.66;;;23.71;90.92
17525;BME280;40431;52.198;9.902;2023-06-22T08:54:36;100959.53;;;23.74;92.03
17525;BME280;40431;52.198;9.902;2023-06-22T08:57:03;100954.53;;;23.78;91.57
17525;BME280;40431;52.198;9.902;2023-06-22T08:59:29;100956.44;;;23.85;91.50
17525;BME280;40431;52.198;9.902;2023-06-22T09:01:55;100948.53;;;23.91;91.11
17525;BME280;40431;52.198;9.902;2023-06-22T09:04:22;100946.09;;;23.96;90.88
17525;BME280;40431;52.198;9.902;2023-06-22T09:06:48;100946.44;;;23.93;89.89
17525;BME280;40431;52.198;9.902;2023-06-22T09:09:17;100939.13;;;23.83;90.29
17525;BME280;40431;52.198;9.902;2023-06-22T09:11:46;100931.38;;;23.95;90.94
17525;BME280;40431;52.198;9.902;2023-06-22T09:14:12;100911.78;;;23.72;88.74
17525;BME280;40431;52.198;9.902;2023-06-22T09:16:39;100910.41;;;23.84;89.55
17525;BME280;40431;52.198;9.902;2023-06-22T09:19:05;100903.88;;;23.94;89.06
17525;BME280;40431;52.198;9.902;2023-06-22T09:21:31;100901.78;;;24.12;88.80
17525;BME280;40431;52.198;9.902;2023-06-22T09:23:58;100902.09;;;24.34;88.43
17525;BME280;40431;52.198;9.902;2023-06-22T09:26:24;100907.13;;;24.39;84.92
17525;BME280;40431;52.198;9.902;2023-06-22T09:28:52;100907.28;;;24.45;89.94
17525;BME280;40431;52.198;9.902;2023-06-22T09:31:18;100918.53;;;24.52;86.54
17525;BME280;40431;52.198;9.902;2023-06-22T09:33:50;100917.16;;;24.31;88.27
17525;BME280;40431;52.198;9.902;2023-06-22T09:36:16;100918.03;;;24.24;87.14
17525;BME280;40431;52.198;9.902;2023-06-22T09:38:43;100914.59;;;24.22;89.24
17525;BME280;40431;52.198;9.902;2023-06-22T09:41:09;100910.75;;;24.31;90.27
17525;BME280;40431;52.198;9.902;2023-06-22T09:43:35;100912.66;;;24.39;89.92
17525;BME280;40431;52.198;9.902;2023-06-22T09:46:03;100908.81;;;24.56;89.34
17525;BME280;40431;52.198;9.902;2023-06-22T09:48:30;100905.31;;;24.79;90.38
17525;BME280;40431;52.198;9.902;2023-06-22T09:50:57;100896.91;;;24.95;89.44
17525;BME280;40431;52.198;9.902;2023-06-22T09:53:23;100884.25;;;24.93;85.46
17525;BME280;40431;52.198;9.902;2023-06-22T09:55:50;100882.84;;;24.97;85.27
17525;BME280;40431;52.198;9.902;2023-06-22T09:58:16;100875.03;;;25.00;85.76
17525;BME280;40431;52.198;9.902;2023-06-22T10:00:42;100876.09;;;24.99;85.97
17525;BME280;40431;52.198;9.902;2023-06-22T10:03:10;100874.50;;;25.05;87.45
17525;BME280;40431;52.198;9.902;2023-06-22T10:05:36;100880.09;;;25.28;87.03
17525;BME280;40431;52.198;9.902;2023-06-22T10:08:03;100879.91;;;25.30;84.40
17525;BME280;40431;52.198;9.902;2023-06-22T10:10:30;100880.81;;;25.22;85.07
17525;BME280;40431;52.198;9.902;2023-06-22T10:12:57;100883.19;;;25.33;88.04
17525;BME280;40431;52.198;9.902;2023-06-22T10:15:28;100888.19;;;25.46;85.62
17525;BME280;40431;52.198;9.902;2023-06-22T10:17:55;100888.84;;;25.48;83.76
17525;BME280;40431;52.198;9.902;2023-06-22T10:20:23;100891.75;;;25.55;84.94
17525;BME280;40431;52.198;9.902;2023-06-22T10:22:51;100884.78;;;25.59;85.15
17525;BME280;40431;52.198;9.902;2023-06-22T10:25:17;100888.50;;;25.75;85.44
17525;BME280;40431;52.198;9.902;2023-06-22T10:27:44;100891.38;;;25.81;85.51
17525;BME280;40431;52.198;9.902;2023-06-22T10:30:12;100884.91;;;25.89;83.38
17525;BME280;40431;52.198;9.902;2023-06-22T10:32:39;100877.31;;;25.83;82.70
17525;BME280;40431;52.198;9.902;2023-06-22T10:35:06;100874.41;;;25.76;82.10
17525;BME280;40431;52.198;9.902;2023-06-22T10:37:34;100876.88;;;25.71;84.10
17525;BME280;40431;52.198;9.902;2023-06-22T10:40:00;100858.44;;;25.78;84.16
17525;BME280;40431;52.198;9.902;2023-06-22T10:42:28;100854.72;;;25.86;83.19
17525;BME280;40431;52.198;9.902;2023-06-22T10:44:54;100860.22;;;25.94;83.95
17525;BME280;40431;52.198;9.902;2023-06-22T10:47:20;100851.09;;;26.00;81.97
17525;BME280;40431;52.198;9.902;2023-06-22T10:49:47;100845.09;;;25.97;83.63
17525;BME280;40431;52.198;9.902;2023-06-22T10:52:13;100839.13;;;26.00;82.17
17525;BME280;40431;52.198;9.902;2023-06-22T10:54:41;100834.56;;;26.07;81.98
17525;BME280;40431;52.198;9.902;2023-06-22T10:57:07;100839.38;;;26.13;81.56
17525;BME280;40431;52.198;9.902;2023-06-22T10:59:33;100834.88;;;26.12;82.63
17525;BME280;40431;52.198;9.902;2023-06-22T11:02:00;100842.97;;;25.99;84.52
17525;BME280;40431;52.198;9.902;2023-06-22T11:04:27;100841.88;;;26.08;85.36
17525;BME280;40431;52.198;9.902;2023-06-22T11:06:54;100844.84;;;26.07;86.56
17525;BME280;40431;52.198;9.902;2023-06-22T11:09:21;100842.66;;;26.32;87.03
17525;BME280;40431;52.198;9.902;2023-06-22T11:11:50;100838.81;;;26.63;84.95
17525;BME280;40431;52.198;9.902;2023-06-22T11:14:18;100833.63;;;26.90;82.45
17525;BME280;40431;52.198;9.902;2023-06-22T11:16:45;100828.50;;;27.08;81.81
17525;BME280;40431;52.198;9.902;2023-06-22T11:19:11;100822.03;;;27.01;80.84
17525;BME280;40431;52.198;9.902;2023-06-22T11:21:38;100821.13;;;27.15;81.36
17525;BME280;40431;52.198;9.902;2023-06-22T11:24:05;100825.16;;;27.34;81.04
17525;BME280;40431;52.198;9.902;2023-06-22T11:26:32;100812.41;;;27.40;80.36
17525;BME280;40431;52.198;9.902;2023-06-22T11:29:00;100800.06;;;27.49;77.53
17525;BME280;40431;52.198;9.902;2023-06-22T11:31:30;100795.44;;;27.57;78.60
17525;BME280;40431;52.198;9.902;2023-06-22T11:33:56;100793.25;;;27.52;77.48
17525;BME280;40431;52.198;9.902;2023-06-22T11:36:22;100785.50;;;27.47;78.15
17525;BME280;40431;52.198;9.902;2023-06-22T11:38:49;100775.16;;;27.41;79.19
17525;BME280;40431;52.198;9.902;2023-06-22T11:41:15;100770.13;;;27.52;78.03
17525;BME280;40431;52.198;9.902;2023-06-22T11:43:42;100768.44;;;27.57;78.78
17525;BME280;40431;52.198;9.902;2023-06-22T11:46:10;100770.22;;;27.65;79.44
17525;BME280;40431;52.198;9.902;2023-06-22T11:48:36;100758.97;;;27.80;78.52
17525;BME280;40431;52.198;9.902;2023-06-22T11:51:03;100746.56;;;27.82;77.32
17525;BME280;40431;52.198;9.902;2023-06-22T11:53:31;100737.00;;;27.92;77.76
17525;BME280;40431;52.198;9.902;2023-06-22T11:55:58;100732.81;;;28.03;77.60
17525;BME280;40431;52.198;9.902;2023-06-22T11:58:24;100731.16;;;28.08;75.88
17525;BME280;40431;52.198;9.902;2023-06-22T12:00:51;100725.63;;;28.22;77.01
17525;BME280;40431;52.198;9.902;2023-06-22T12:03:19;100728.75;;;28.40;76.16
17525;BME280;40431;52.198;9.902;2023-06-22T12:05:46;100720.22;;;28.55;76.50
17525;BME280;40431;52.198;9.902;2023-06-22T12:08:12;100716.13;;;28.51;73.09
17525;BME280;40431;52.198;9.902;2023-06-22T12:10:39;100712.69;;;28.56;72.98
17525;BME280;40431;52.198;9.902;2023-06-22T12:13:06;100717.09;;;28.78;72.41
17525;BME280;40431;52.198;9.902;2023-06-22T12:15:32;100709.63;;;28.99;71.79
17525;BME280;40431;52.198;9.902;2023-06-22T12:17:58;100703.84;;;29.21;68.81
17525;BME280;40431;52.198;9.902;2023-06-22T12:20:27;100701.50;;;29.04;67.69
17525;BME280;40431;52.198;9.902;2023-06-22T12:22:54;100685.53;;;28.78;68.57
17525;BME280;40431;52.198;9.902;2023-06-22T12:25:23;100683.19;;;28.75;70.12
17525;BME280;40431;52.198;9.902;2023-06-22T12:27:49;100683.28;;;28.53;68.64
17525;BME280;40431;52.198;9.902;2023-06-22T12:30:16;100684.78;;;28.49;70.88
17525;BME280;40431;52.198;9.902;2023-06-22T12:32:42;100678.13;;;28.50;70.44
17525;BME280;40431;52.198;9.902;2023-06-22T12:35:09;100666.50;;;28.40;71.08
17525;BME280;40431;52.198;9.902;2023-06-22T12:37:40;100670.16;;;28.33;71.66
17525;BME280;40431;52.198;9.902;2023-06-22T12:40:07;100669.50;;;28.31;72.69
17525;BME280;40431;52.198;9.902;2023-06-22T12:42:34;100666.47;;;28.26;73.54
17525;BME280;40431;52.198;9.902;2023-06-22T12:45:00;100670.34;;;28.32;73.04